Emerald Coast — WDC9127 — position and weather

sailwx.info

Track history (hours):
 
Tides and Currents Weather Stations Pressure Air Temp Water Temp Dewpoint Dewpoint Depression Visibility Wind Speed Wind Dir Waves Ship Positions

Emerald Coast

Owner: Dann Marine Towing, LC, Chesapeake City, MD. More information available from US FCC via Universal Licensing System and Coast Guard Vessel Documentation Center.

Last reported at 2016-Sep-26 20:33 UTC. Time now 2016-Sep-26 22:27 UTC.
Position N 40°40' W 074°00'.

Length 28 m; draft 3 m.

Type: Towing. MMSI: 367097920.

Date/timePositionNaut miles runAvg speedWind from/ knotsBaromVisibWave heightAir tempDewpointWater temp
2016-Sep-26 20:33N 40°40' W 074°00'0 0.1
2016-Sep-26 19:33N 40°40' W 074°00'1 0.3
2016-Sep-26 15:33N 40°41' W 074°01'0 0.0
2016-Sep-26 13:33N 40°41' W 074°01'0 0.0
2016-Sep-26 11:33N 40°41' W 074°01'1 0.4
2016-Sep-26 08:33N 40°40' W 074°01'0 0.0
2016-Sep-26 02:33N 40°40' W 074°01'0 0.0
2016-Sep-26 01:33N 40°40' W 074°01'0 0.0
2016-Sep-26 00:33N 40°40' W 074°01'6 1.8
2016-Sep-25 21:33N 40°39' W 074°08'3 0.7
2016-Sep-25 17:33N 40°41' W 074°09'0 0.0
2016-Sep-25 16:33N 40°41' W 074°09'2 1.7
2016-Sep-25 15:33N 40°39' W 074°09'2 2.5
2016-Sep-25 14:33N 40°39' W 074°05'4 2.1
2016-Sep-25 12:33N 40°40' W 074°00'0 0.0
2016-Sep-25 11:33N 40°40' W 074°00'0 0.0
2016-Sep-25 10:33N 40°40' W 074°00'0 0.1
2016-Sep-25 09:33N 40°40' W 074°00'0 0.0
2016-Sep-25 07:33N 40°40' W 074°00'0 0.0
2016-Sep-25 04:33N 40°40' W 074°00'2 0.5
2016-Sep-25 00:33N 40°40' W 074°03'2 0.9
2016-Sep-24 22:33N 40°40' W 074°00'0 0.0
2016-Sep-24 21:33N 40°40' W 074°00'0 0.0
2016-Sep-24 19:33N 40°40' W 074°00'0 0.0
2016-Sep-24 18:33N 40°40' W 074°00'0 0.0
2016-Sep-24 17:33N 40°40' W 074°00'0 0.0
2016-Sep-24 16:33N 40°40' W 074°00'0 0.0
2016-Sep-24 14:32N 40°40' W 074°00'0 0.1
2016-Sep-24 12:33N 40°40' W 074°00'0 0.1
2016-Sep-24 10:33N 40°40' W 074°00'0 0.0
2016-Sep-24 09:33N 40°40' W 074°00'0 0.0
2016-Sep-24 03:33N 40°40' W 074°00'1 1.1
2016-Sep-24 02:33N 40°41' W 074°01'2 1.8
2016-Sep-24 01:33N 40°40' W 074°03'0 0.0
2016-Sep-24 00:33N 40°40' W 074°03'2 0.4
2016-Sep-23 19:33N 40°40' W 074°00'4 2.2
2016-Sep-23 17:33N 40°39' W 074°06'3 2.5
2016-Sep-23 16:33N 40°40' W 074°09'0 0.0
2016-Sep-23 15:33N 40°40' W 074°09'6 3.1
2016-Sep-23 13:33N 40°40' W 074°00'0 0.0
2016-Sep-23 09:33N 40°40' W 074°00'2 0.6
2016-Sep-23 06:33N 40°42' W 074°00'10 5.0
2016-Sep-23 04:33N 40°52' W 073°57'7 7.4
2016-Sep-23 03:33N 40°59' W 073°54'9 0.4
2016-Sep-22 04:33N 40°50' W 073°57'7 7.0
2016-Sep-22 03:33N 40°44' W 074°01'12 4.1
2016-Sep-22 00:32N 40°35' W 074°13'0 0.2
2016-Sep-21 22:32N 40°35' W 074°12'2 0.3
2016-Sep-21 16:33N 40°37' W 074°12'7 1.0
2016-Sep-21 09:33N 40°40' W 074°03'3 3.1
2016-Sep-21 08:33N 40°41' W 074°00'1 0.5
2016-Sep-21 05:33N 40°40' W 074°00'0 0.0
2016-Sep-21 03:33N 40°40' W 074°00'0 0.0
2016-Sep-21 02:33N 40°40' W 074°00'0 0.0
2016-Sep-20 17:33N 40°40' W 074°00'2 0.6
2016-Sep-20 14:33N 40°42' W 074°00'1 1.2
2016-Sep-20 13:33N 40°41' W 074°01'10 1.9
2016-Sep-20 08:11N 40°35' W 074°12'0 0.0
2016-Sep-20 07:33N 40°35' W 074°12'0 0.0
2016-Sep-20 06:31N 40°35' W 074°12'10 2.6
2016-Sep-20 02:33N 40°40' W 074°00'0 0.0
2016-Sep-19 23:33N 40°40' W 074°00'0 0.0
2016-Sep-19 19:33N 40°40' W 074°00'0 0.0
2016-Sep-19 18:33N 40°40' W 074°00'0 0.0
2016-Sep-19 16:33N 40°40' W 074°00'6 3.1
2016-Sep-19 14:33N 40°40' W 074°09'0 0.0
2016-Sep-19 13:33N 40°40' W 074°09'0 0.0
2016-Sep-19 12:33N 40°40' W 074°09'1 1.2
2016-Sep-19 11:33N 40°39' W 074°09'7 3.3
2016-Sep-19 09:33N 40°40' W 074°00'0 0.0
2016-Sep-19 07:33N 40°40' W 074°00'0 0.0
2016-Sep-19 06:33N 40°40' W 074°00'0 0.1
2016-Sep-19 03:33N 40°40' W 074°00'0 0.0
2016-Sep-19 02:33N 40°40' W 074°00'0 0.0
2016-Sep-19 00:33N 40°40' W 074°00'0 0.0
2016-Sep-18 19:33N 40°40' W 074°00'0 0.0
2016-Sep-18 15:33N 40°40' W 074°00'0 0.0
2016-Sep-18 14:33N 40°40' W 074°00'3 0.7
2016-Sep-18 10:33N 40°39' W 074°03'2 1.8
2016-Sep-18 09:33N 40°40' W 074°03'2 0.3
2016-Sep-18 02:33N 40°40' W 074°00'0 0.0
2016-Sep-18 01:33N 40°40' W 074°00'0 0.0
2016-Sep-18 00:33N 40°40' W 074°00'0 0.0
2016-Sep-17 22:33N 40°40' W 074°00'0 0.0
2016-Sep-17 21:33N 40°40' W 074°00'0 0.0
2016-Sep-17 20:33N 40°40' W 074°00'0 0.0
2016-Sep-17 19:16N 40°40' W 074°00'0 0.0
2016-Sep-17 13:33N 40°40' W 074°00'0 0.0
2016-Sep-17 12:33N 40°40' W 074°00'0 0.0
2016-Sep-17 10:33N 40°40' W 074°00'3 2.9
2016-Sep-17 09:33N 40°40' W 074°04'4 3.5
2016-Sep-17 08:33N 40°40' W 074°09'2 1.5
2016-Sep-17 07:33N 40°41' W 074°08'0 0.0
2016-Sep-17 05:33N 40°41' W 074°08'0 0.0
2016-Sep-17 04:33N 40°41' W 074°08'3 0.7
2016-Sep-17 00:33N 40°39' W 074°07'  
Track history (hours):
 
Tides and Currents Weather Stations Pressure Air Temp Water Temp Dewpoint Dewpoint Depression Visibility Wind Speed Wind Dir Waves Ship Positions

Emerald Coast

Owner: Dann Marine Towing, LC, Chesapeake City, MD. More information available from US FCC via Universal Licensing System and Coast Guard Vessel Documentation Center.

Last reported at 2016-Sep-26 20:33 UTC. Time now 2016-Sep-26 22:27 UTC.
Position N 40°40' W 074°00'.

Length 28 m; draft 3 m.

Type: Towing. MMSI: 367097920.

Date/timePositionNaut miles runAvg speedWind from/ knotsBaromVisibWave heightAir tempDewpointWater temp
2016-Sep-26 20:33N 40°40' W 074°00'0 0.1
2016-Sep-26 19:33N 40°40' W 074°00'1 0.3
2016-Sep-26 15:33N 40°41' W 074°01'0 0.0
2016-Sep-26 13:33N 40°41' W 074°01'0 0.0
2016-Sep-26 11:33N 40°41' W 074°01'1 0.4
2016-Sep-26 08:33N 40°40' W 074°01'0 0.0
2016-Sep-26 02:33N 40°40' W 074°01'0 0.0
2016-Sep-26 01:33N 40°40' W 074°01'0 0.0
2016-Sep-26 00:33N 40°40' W 074°01'6 1.8
2016-Sep-25 21:33N 40°39' W 074°08'3 0.7
2016-Sep-25 17:33N 40°41' W 074°09'0 0.0
2016-Sep-25 16:33N 40°41' W 074°09'2 1.7
2016-Sep-25 15:33N 40°39' W 074°09'2 2.5
2016-Sep-25 14:33N 40°39' W 074°05'4 2.1
2016-Sep-25 12:33N 40°40' W 074°00'0 0.0
2016-Sep-25 11:33N 40°40' W 074°00'0 0.0
2016-Sep-25 10:33N 40°40' W 074°00'0 0.1
2016-Sep-25 09:33N 40°40' W 074°00'0 0.0
2016-Sep-25 07:33N 40°40' W 074°00'0 0.0
2016-Sep-25 04:33N 40°40' W 074°00'2 0.5
2016-Sep-25 00:33N 40°40' W 074°03'2 0.9
2016-Sep-24 22:33N 40°40' W 074°00'0 0.0
2016-Sep-24 21:33N 40°40' W 074°00'0 0.0
2016-Sep-24 19:33N 40°40' W 074°00'0 0.0
2016-Sep-24 18:33N 40°40' W 074°00'0 0.0
2016-Sep-24 17:33N 40°40' W 074°00'0 0.0
2016-Sep-24 16:33N 40°40' W 074°00'0 0.0
2016-Sep-24 14:32N 40°40' W 074°00'0 0.1
2016-Sep-24 12:33N 40°40' W 074°00'0 0.1
2016-Sep-24 10:33N 40°40' W 074°00'0 0.0
2016-Sep-24 09:33N 40°40' W 074°00'0 0.0
2016-Sep-24 03:33N 40°40' W 074°00'1 1.1
2016-Sep-24 02:33N 40°41' W 074°01'2 1.8
2016-Sep-24 01:33N 40°40' W 074°03'0 0.0
2016-Sep-24 00:33N 40°40' W 074°03'2 0.4
2016-Sep-23 19:33N 40°40' W 074°00'4 2.2
2016-Sep-23 17:33N 40°39' W 074°06'3 2.5
2016-Sep-23 16:33N 40°40' W 074°09'0 0.0
2016-Sep-23 15:33N 40°40' W 074°09'6 3.1
2016-Sep-23 13:33N 40°40' W 074°00'0 0.0
2016-Sep-23 09:33N 40°40' W 074°00'2 0.6
2016-Sep-23 06:33N 40°42' W 074°00'10 5.0
2016-Sep-23 04:33N 40°52' W 073°57'7 7.4
2016-Sep-23 03:33N 40°59' W 073°54'9 0.4
2016-Sep-22 04:33N 40°50' W 073°57'7 7.0
2016-Sep-22 03:33N 40°44' W 074°01'12 4.1
2016-Sep-22 00:32N 40°35' W 074°13'0 0.2
2016-Sep-21 22:32N 40°35' W 074°12'2 0.3
2016-Sep-21 16:33N 40°37' W 074°12'7 1.0
2016-Sep-21 09:33N 40°40' W 074°03'3 3.1
2016-Sep-21 08:33N 40°41' W 074°00'1 0.5
2016-Sep-21 05:33N 40°40' W 074°00'0 0.0
2016-Sep-21 03:33N 40°40' W 074°00'0 0.0
2016-Sep-21 02:33N 40°40' W 074°00'0 0.0
2016-Sep-20 17:33N 40°40' W 074°00'2 0.6
2016-Sep-20 14:33N 40°42' W 074°00'1 1.2
2016-Sep-20 13:33N 40°41' W 074°01'10 1.9
2016-Sep-20 08:11N 40°35' W 074°12'0 0.0
2016-Sep-20 07:33N 40°35' W 074°12'0 0.0
2016-Sep-20 06:31N 40°35' W 074°12'10 2.6
2016-Sep-20 02:33N 40°40' W 074°00'0 0.0
2016-Sep-19 23:33N 40°40' W 074°00'0 0.0
2016-Sep-19 19:33N 40°40' W 074°00'0 0.0
2016-Sep-19 18:33N 40°40' W 074°00'0 0.0
2016-Sep-19 16:33N 40°40' W 074°00'6 3.1
2016-Sep-19 14:33N 40°40' W 074°09'0 0.0
2016-Sep-19 13:33N 40°40' W 074°09'0 0.0
2016-Sep-19 12:33N 40°40' W 074°09'1 1.2
2016-Sep-19 11:33N 40°39' W 074°09'7 3.3
2016-Sep-19 09:33N 40°40' W 074°00'0 0.0
2016-Sep-19 07:33N 40°40' W 074°00'0 0.0
2016-Sep-19 06:33N 40°40' W 074°00'0 0.1
2016-Sep-19 03:33N 40°40' W 074°00'0 0.0
2016-Sep-19 02:33N 40°40' W 074°00'0 0.0
2016-Sep-19 00:33N 40°40' W 074°00'0 0.0
2016-Sep-18 19:33N 40°40' W 074°00'0 0.0
2016-Sep-18 15:33N 40°40' W 074°00'0 0.0
2016-Sep-18 14:33N 40°40' W 074°00'3 0.7
2016-Sep-18 10:33N 40°39' W 074°03'2 1.8
2016-Sep-18 09:33N 40°40' W 074°03'2 0.3
2016-Sep-18 02:33N 40°40' W 074°00'0 0.0
2016-Sep-18 01:33N 40°40' W 074°00'0 0.0
2016-Sep-18 00:33N 40°40' W 074°00'0 0.0
2016-Sep-17 22:33N 40°40' W 074°00'0 0.0
2016-Sep-17 21:33N 40°40' W 074°00'0 0.0
2016-Sep-17 20:33N 40°40' W 074°00'0 0.0
2016-Sep-17 19:16N 40°40' W 074°00'0 0.0
2016-Sep-17 13:33N 40°40' W 074°00'0 0.0
2016-Sep-17 12:33N 40°40' W 074°00'0 0.0
2016-Sep-17 10:33N 40°40' W 074°00'3 2.9
2016-Sep-17 09:33N 40°40' W 074°04'4 3.5
2016-Sep-17 08:33N 40°40' W 074°09'2 1.5
2016-Sep-17 07:33N 40°41' W 074°08'0 0.0
2016-Sep-17 05:33N 40°41' W 074°08'0 0.0
2016-Sep-17 04:33N 40°41' W 074°08'3 0.7
2016-Sep-17 00:33N 40°39' W 074°07'  

Dump ship's entire track history